createdAt,value
2023-05-13T00:02:04.323Z,8.61
2023-05-13T00:07:08.035Z,8.54
2023-05-13T00:12:11.655Z,8.45
2023-05-13T00:17:15.272Z,8.39
2023-05-13T00:22:18.579Z,8.34
2023-05-13T00:27:22.201Z,8.25
2023-05-13T00:32:25.927Z,8.15
2023-05-13T00:37:29.346Z,8.05
2023-05-13T00:42:32.855Z,7.99
2023-05-13T00:47:36.713Z,7.92
2023-05-13T00:52:41.088Z,7.85
2023-05-13T00:57:44.214Z,7.83
2023-05-13T01:03:00.591Z,7.80
2023-05-13T01:08:09.780Z,7.73
2023-05-13T01:13:16.513Z,7.66
2023-05-13T01:18:25.475Z,7.59
2023-05-13T01:23:29.232Z,7.57
2023-05-13T01:28:32.750Z,7.55
2023-05-13T01:33:36.673Z,7.56
2023-05-13T01:38:41.515Z,7.51
2023-05-13T01:43:45.447Z,7.42
2023-05-13T01:48:48.960Z,7.35
2023-05-13T01:53:52.472Z,7.31
2023-05-13T01:58:56.095Z,7.29
2023-05-13T02:04:02.214Z,7.25
2023-05-13T02:09:05.887Z,7.21
2023-05-13T02:14:09.409Z,7.17
2023-05-13T02:19:12.983Z,7.13
2023-05-13T02:24:17.458Z,7.11
2023-05-13T02:29:20.671Z,7.09
2023-05-13T02:34:24.597Z,7.08
2023-05-13T02:39:28.012Z,7.08
2023-05-13T02:44:31.544Z,7.09
2023-05-13T02:49:35.038Z,7.08
2023-05-13T02:54:38.713Z,7.09
2023-05-13T02:59:42.279Z,7.10
2023-05-13T03:04:45.892Z,7.11
2023-05-13T03:09:49.409Z,7.10
2023-05-13T03:14:53.028Z,7.19
2023-05-13T03:19:56.444Z,7.27
2023-05-13T03:24:59.955Z,7.31
2023-05-13T03:30:03.777Z,7.39
2023-05-13T03:35:07.820Z,7.49
2023-05-13T03:40:11.828Z,7.59
2023-05-13T03:45:15.254Z,7.69
2023-05-13T03:50:18.853Z,7.86
2023-05-13T03:55:22.789Z,8.04
2023-05-13T04:00:26.211Z,8.13
2023-05-13T04:05:29.721Z,8.23
2023-05-13T04:10:33.338Z,8.34
2023-05-13T04:15:36.750Z,8.51
2023-05-13T04:20:40.694Z,8.74
2023-05-13T04:25:44.092Z,8.95
2023-05-13T04:30:47.719Z,9.16
2023-05-13T04:35:51.117Z,9.37
2023-05-13T04:40:54.633Z,9.58
2023-05-13T04:45:58.278Z,9.79
2023-05-13T04:51:01.876Z,10.04
2023-05-13T04:56:06.511Z,10.31
2023-05-13T05:01:10.219Z,10.56
2023-05-13T05:06:14.875Z,10.80
2023-05-13T05:11:21.112Z,11.08
2023-05-13T05:16:24.463Z,11.38
2023-05-13T05:21:28.085Z,11.64
2023-05-13T05:26:31.598Z,11.95
2023-05-13T05:31:35.389Z,12.26
2023-05-13T05:36:38.830Z,12.55
2023-05-13T05:41:42.453Z,12.81
2023-05-13T05:46:45.967Z,13.06
2023-05-13T05:51:49.484Z,13.33
2023-05-13T05:56:52.918Z,13.61
2023-05-13T06:01:56.567Z,13.88
2023-05-13T06:07:00.079Z,14.16
2023-05-13T06:12:04.063Z,14.44
2023-05-13T06:17:07.473Z,14.73
2023-05-13T06:22:43.547Z,15.00
2023-05-13T06:27:47.057Z,15.27
2023-05-13T06:33:01.099Z,15.55
2023-05-13T06:38:06.282Z,15.84
2023-05-13T06:43:09.487Z,16.12
2023-05-13T06:48:14.450Z,16.37
2023-05-13T06:53:17.775Z,16.64
2023-05-13T06:58:21.364Z,16.89
2023-05-13T07:03:24.943Z,17.20
2023-05-13T07:08:28.605Z,17.54
2023-05-13T07:13:33.734Z,17.83
2023-05-13T07:18:37.214Z,18.11
2023-05-13T07:23:41.548Z,18.45
2023-05-13T07:28:45.933Z,18.81
2023-05-13T07:33:49.320Z,19.10
2023-05-13T07:38:52.865Z,19.38
2023-05-13T07:43:56.993Z,19.65
2023-05-13T07:49:00.275Z,19.96
2023-05-13T07:54:03.924Z,20.26
2023-05-13T07:59:07.235Z,20.47
2023-05-13T08:09:14.583Z,20.89
2023-05-13T08:14:18.085Z,21.10
2023-05-13T08:19:21.353Z,21.29
2023-05-13T08:24:25.017Z,21.42
2023-05-13T08:29:28.632Z,21.54
2023-05-13T08:34:32.149Z,21.79
2023-05-13T08:39:36.186Z,21.88
2023-05-13T08:44:42.567Z,22.07
2023-05-13T08:49:46.998Z,22.44
2023-05-13T08:54:50.411Z,22.74
2023-05-13T08:59:53.923Z,22.86
2023-05-13T09:05:03.176Z,23.02
2023-05-13T09:10:08.372Z,23.21
2023-05-13T09:15:14.819Z,23.58
2023-05-13T09:20:19.742Z,23.84
2023-05-13T09:25:27.352Z,24.16
2023-05-13T09:30:34.813Z,24.30
2023-05-13T09:35:49.559Z,24.42
2023-05-13T09:40:57.831Z,24.95
2023-05-13T09:46:03.893Z,25.39
2023-05-13T09:51:07.274Z,25.59
2023-05-13T09:56:10.792Z,25.74
2023-05-13T10:01:14.877Z,25.78
2023-05-13T10:06:19.257Z,25.57
2023-05-13T10:11:24.868Z,25.67
2023-05-13T10:16:30.320Z,26.26
2023-05-13T10:21:37.179Z,26.72
2023-05-13T10:26:42.027Z,26.92
2023-05-13T10:31:47.411Z,27.08
2023-05-13T10:37:15.687Z,27.23
2023-05-13T10:42:43.420Z,27.52
2023-05-13T10:47:51.967Z,27.55
2023-05-13T10:52:58.417Z,27.75
2023-05-13T10:58:08.869Z,27.74
2023-05-13T11:03:13.870Z,27.86
2023-05-13T11:08:39.745Z,27.82
2023-05-13T11:13:43.161Z,27.76
2023-05-13T11:18:47.023Z,27.64
2023-05-13T11:23:57.568Z,27.68
2023-05-13T11:29:09.785Z,28.10
2023-05-13T11:34:14.742Z,28.52
2023-05-13T11:39:20.737Z,28.26
2023-05-13T11:44:25.662Z,27.46
2023-05-13T11:49:41.252Z,26.54
2023-05-13T11:54:54.223Z,26.12
2023-05-13T12:00:05.700Z,26.25
2023-05-13T12:05:11.574Z,26.28
2023-05-13T12:10:15.325Z,26.26
2023-05-13T12:15:21.686Z,26.23
2023-05-13T12:20:25.826Z,26.78
2023-05-13T12:25:39.100Z,27.45
2023-05-13T12:30:57.293Z,27.88
2023-05-13T12:36:28.329Z,28.14
2023-05-13T12:41:35.254Z,27.58
2023-05-13T12:46:40.100Z,27.29
2023-05-13T12:51:43.524Z,27.60
2023-05-13T12:56:46.957Z,27.81
2023-05-13T13:01:51.394Z,27.99
2023-05-13T13:06:54.886Z,28.20
2023-05-13T13:11:58.502Z,28.32
2023-05-13T13:17:01.925Z,28.50
2023-05-13T13:22:05.944Z,28.82
2023-05-13T13:27:11.765Z,29.35
2023-05-13T13:32:15.320Z,29.94
2023-05-13T13:37:18.846Z,30.48
2023-05-13T13:42:25.005Z,30.80
2023-05-13T13:47:32.063Z,31.42
2023-05-13T13:52:35.533Z,32.79
2023-05-13T13:57:39.151Z,33.20
2023-05-13T14:02:43.913Z,33.61
2023-05-13T14:07:48.644Z,34.45
2023-05-13T14:12:52.286Z,33.50
2023-05-13T14:17:55.953Z,35.06
2023-05-13T14:22:59.406Z,36.06
2023-05-13T14:28:03.730Z,35.81
2023-05-13T14:33:07.101Z,37.67
2023-05-13T14:38:10.772Z,36.31
2023-05-13T14:43:14.383Z,35.84
2023-05-13T14:48:19.467Z,34.75
2023-05-13T14:53:22.848Z,34.04
2023-05-13T14:58:26.477Z,32.99
2023-05-13T15:03:30.103Z,31.52
2023-05-13T15:08:33.703Z,30.42
2023-05-13T15:13:37.429Z,29.55
2023-05-13T15:18:41.269Z,28.57
2023-05-13T15:23:44.975Z,27.22
2023-05-13T15:28:48.475Z,26.13
2023-05-13T15:33:51.894Z,25.34
2023-05-13T15:38:55.508Z,24.73
2023-05-13T15:43:59.022Z,24.41
2023-05-13T15:49:03.369Z,24.27
2023-05-13T15:54:06.776Z,24.27
2023-05-13T15:59:10.182Z,24.42
2023-05-13T16:04:13.691Z,24.61
2023-05-13T16:09:17.112Z,24.50
2023-05-13T16:14:20.615Z,24.07
2023-05-13T16:19:24.260Z,23.66
2023-05-13T16:24:27.658Z,23.15
2023-05-13T16:29:31.010Z,22.81
2023-05-13T16:34:34.520Z,22.59
2023-05-13T16:39:38.017Z,22.43
2023-05-13T16:44:41.870Z,22.22
2023-05-13T16:49:50.194Z,22.06
2023-05-13T16:54:57.199Z,22.05
2023-05-13T17:00:01.999Z,24.82
2023-05-13T17:05:07.546Z,25.87
2023-05-13T17:10:11.392Z,25.29
2023-05-13T17:15:14.905Z,24.73
2023-05-13T17:20:19.893Z,23.70
2023-05-13T17:25:23.681Z,23.05
2023-05-13T17:30:27.137Z,22.82
2023-05-13T17:35:30.698Z,23.30
2023-05-13T17:40:34.480Z,25.33
2023-05-13T17:45:37.972Z,26.94
2023-05-13T17:50:41.564Z,27.56
2023-05-13T17:55:45.177Z,26.24
2023-05-13T18:00:49.197Z,24.87
2023-05-13T18:05:52.698Z,23.65
2023-05-13T18:10:56.342Z,22.63
2023-05-13T18:16:00.402Z,21.76
2023-05-13T18:21:03.880Z,21.07
2023-05-13T18:26:07.608Z,20.32
2023-05-13T18:31:11.771Z,19.74
2023-05-13T18:36:15.240Z,19.15
2023-05-13T18:41:18.623Z,18.63
2023-05-13T18:46:22.087Z,18.25
2023-05-13T18:51:25.798Z,17.87
2023-05-13T18:56:29.303Z,17.58
2023-05-13T19:01:32.950Z,17.32
2023-05-13T19:06:38.280Z,17.06
2023-05-13T19:11:41.806Z,16.84
2023-05-13T19:16:47.097Z,16.67
2023-05-13T19:21:50.567Z,16.48
2023-05-13T19:26:54.009Z,16.28
2023-05-13T19:32:00.207Z,16.08
2023-05-13T19:37:05.219Z,15.90
2023-05-13T19:42:08.728Z,15.72
2023-05-13T19:47:12.075Z,15.54
2023-05-13T19:52:15.961Z,15.37
2023-05-13T19:57:21.448Z,15.19
2023-05-13T20:02:25.745Z,15.03
2023-05-13T20:07:33.178Z,14.88
2023-05-13T20:12:38.686Z,14.73
2023-05-13T20:17:42.410Z,14.60
2023-05-13T20:22:46.166Z,14.50
2023-05-13T20:27:50.128Z,14.37
2023-05-13T20:32:53.890Z,14.20
2023-05-13T20:38:00.388Z,14.07
2023-05-13T20:43:05.124Z,13.91
2023-05-13T20:48:10.754Z,13.74
2023-05-13T20:53:14.637Z,13.57
2023-05-13T20:58:18.156Z,13.42
2023-05-13T21:03:22.565Z,13.32
2023-05-13T21:08:26.518Z,13.19
2023-05-13T21:13:30.133Z,13.07
2023-05-13T21:18:34.387Z,12.92
2023-05-13T21:23:40.133Z,12.80
2023-05-13T21:28:44.260Z,12.78
2023-05-13T21:33:49.222Z,12.73
2023-05-13T21:38:55.252Z,12.61
2023-05-13T21:43:59.024Z,12.47
2023-05-13T21:49:03.374Z,12.32
2023-05-13T21:54:07.024Z,12.20
2023-05-13T21:59:10.425Z,12.11
2023-05-13T22:04:13.888Z,11.99
2023-05-13T22:09:17.311Z,11.88
2023-05-13T22:14:21.023Z,11.77
2023-05-13T22:19:24.370Z,11.66
2023-05-13T22:24:27.956Z,11.55
2023-05-13T22:29:31.669Z,11.42
2023-05-13T22:34:35.192Z,11.29
2023-05-13T22:39:38.675Z,11.15
2023-05-13T22:44:42.325Z,11.02
2023-05-13T22:49:45.953Z,10.90
2023-05-13T22:54:49.457Z,10.81
2023-05-13T22:59:52.772Z,10.73
2023-05-13T23:04:56.178Z,10.65
2023-05-13T23:09:59.799Z,10.59
2023-05-13T23:15:04.330Z,10.49
2023-05-13T23:20:08.465Z,10.39
2023-05-13T23:25:11.672Z,10.32
2023-05-13T23:30:15.904Z,10.24
2023-05-13T23:35:19.114Z,10.20
2023-05-13T23:40:22.841Z,10.18
2023-05-13T23:45:26.689Z,10.17
2023-05-13T23:50:30.278Z,10.15
2023-05-13T23:55:33.790Z,10.07
